createdAt,value
2022-09-15T00:01:19.386Z,2.87
2022-09-15T00:03:46.757Z,2.67
2022-09-15T00:06:15.458Z,3.30
2022-09-15T00:08:45.062Z,2.60
2022-09-15T00:11:18.658Z,2.20
2022-09-15T00:13:46.499Z,3.47
2022-09-15T00:16:17.978Z,2.93
2022-09-15T00:18:46.942Z,3.20
2022-09-15T00:21:17.811Z,3.37
2022-09-15T00:23:48.043Z,2.13
2022-09-15T00:26:17.931Z,2.30
2022-09-15T00:28:45.974Z,2.50
2022-09-15T00:31:21.137Z,3.10
2022-09-15T00:33:50.122Z,3.00
2022-09-15T00:36:18.355Z,1.90
2022-09-15T00:38:46.230Z,3.27
2022-09-15T00:41:15.901Z,2.70
2022-09-15T00:43:56.975Z,2.60
2022-09-15T00:46:36.082Z,2.90
2022-09-15T00:49:21.864Z,2.50
2022-09-15T00:52:02.133Z,2.80
2022-09-15T00:54:33.843Z,2.40
2022-09-15T00:57:05.170Z,2.30
2022-09-15T00:59:33.034Z,2.40
2022-09-15T01:02:13.498Z,2.60
2022-09-15T01:04:42.497Z,2.40
2022-09-15T01:07:11.579Z,2.70
2022-09-15T01:10:02.343Z,1.80
2022-09-15T01:12:30.111Z,2.80
2022-09-15T01:14:58.450Z,2.43
2022-09-15T01:17:55.716Z,2.90
2022-09-15T01:20:52.835Z,2.93
2022-09-15T01:23:39.810Z,3.37
2022-09-15T01:26:13.519Z,3.27
2022-09-15T01:29:07.599Z,2.60
2022-09-15T01:32:05.353Z,3.00
2022-09-15T01:38:32.483Z,2.40
2022-09-15T01:44:44.443Z,2.60
2022-09-15T01:47:14.497Z,3.00
2022-09-15T01:50:16.735Z,3.27
2022-09-15T01:52:46.322Z,3.67
2022-09-15T01:55:36.181Z,2.67
2022-09-15T01:58:04.871Z,2.70
2022-09-15T02:00:37.126Z,3.03
2022-09-15T02:03:09.241Z,3.80
2022-09-15T02:05:42.879Z,2.60
2022-09-15T02:08:31.818Z,3.00
2022-09-15T02:11:00.268Z,2.90
2022-09-15T02:13:47.104Z,3.90
2022-09-15T02:16:20.735Z,3.00
2022-09-15T02:22:33.887Z,2.53
2022-09-15T02:25:10.399Z,2.50
2022-09-15T02:27:45.217Z,2.67
2022-09-15T02:30:14.495Z,2.57
2022-09-15T02:33:07.492Z,2.80
2022-09-15T02:35:35.869Z,2.30
2022-09-15T02:38:05.153Z,2.77
2022-09-15T02:40:34.182Z,2.53
2022-09-15T02:43:03.108Z,3.10
2022-09-15T02:45:31.815Z,2.60
2022-09-15T02:48:02.027Z,2.40
2022-09-15T02:50:30.853Z,2.87
2022-09-15T02:52:58.637Z,2.77
2022-09-15T02:55:47.338Z,2.30
2022-09-15T02:58:15.099Z,2.57
2022-09-15T03:00:43.366Z,2.27
2022-09-15T03:03:11.646Z,2.10
2022-09-15T03:05:39.246Z,2.00
2022-09-15T03:08:06.940Z,2.57
2022-09-15T03:10:34.553Z,2.40
2022-09-15T03:16:43.351Z,2.10
2022-09-15T03:19:13.156Z,1.80
2022-09-15T03:21:41.738Z,2.27
2022-09-15T03:24:10.390Z,2.70
2022-09-15T03:26:37.999Z,2.63
2022-09-15T03:29:07.795Z,1.80
2022-09-15T03:31:35.355Z,2.07
2022-09-15T03:34:02.851Z,2.10
2022-09-15T03:36:31.584Z,2.63
2022-09-15T03:39:00.412Z,2.40
2022-09-15T03:41:29.943Z,2.03
2022-09-15T03:43:58.796Z,2.23
2022-09-15T03:46:26.522Z,2.43
2022-09-15T03:48:56.058Z,2.00
2022-09-15T03:51:25.095Z,2.60
2022-09-15T03:53:54.809Z,2.00
2022-09-15T03:56:23.307Z,2.00
2022-09-15T03:58:51.715Z,1.90
2022-09-15T04:01:22.749Z,2.80
2022-09-15T04:03:51.505Z,2.60
2022-09-15T04:06:21.815Z,2.73
2022-09-15T04:08:52.713Z,2.27
2022-09-15T04:11:21.549Z,2.90
2022-09-15T04:13:51.264Z,2.30
2022-09-15T04:16:21.176Z,2.57
2022-09-15T04:18:49.072Z,2.57
2022-09-15T04:21:18.674Z,2.23
2022-09-15T04:23:46.550Z,2.80
2022-09-15T04:26:22.084Z,2.90
2022-09-15T04:28:50.590Z,2.77
2022-09-15T04:31:18.456Z,3.40
2022-09-15T04:33:46.177Z,3.40
2022-09-15T04:36:37.230Z,3.70
2022-09-15T04:39:07.090Z,5.20
2022-09-15T04:41:34.703Z,7.10
2022-09-15T04:44:05.366Z,7.67
2022-09-15T04:46:33.166Z,7.67
2022-09-15T04:49:01.416Z,6.07
2022-09-15T04:51:29.591Z,6.70
2022-09-15T04:53:57.133Z,6.77
2022-09-15T04:56:26.364Z,5.30
2022-09-15T04:59:00.899Z,5.83
2022-09-15T05:16:32.530Z,3.63
2022-09-15T05:19:01.317Z,3.23
2022-09-15T05:21:29.623Z,2.97
2022-09-15T05:23:57.536Z,2.80
2022-09-15T05:26:29.226Z,2.50
2022-09-15T05:28:58.361Z,2.60
2022-09-15T05:31:28.057Z,2.47
2022-09-15T05:34:05.999Z,3.00
2022-09-15T05:36:33.845Z,2.17
2022-09-15T05:39:02.315Z,2.73
2022-09-15T05:41:30.659Z,2.87
2022-09-15T05:43:58.786Z,2.40
2022-09-15T05:46:27.054Z,2.00
2022-09-15T05:48:56.166Z,1.80
2022-09-15T05:51:23.821Z,2.60
2022-09-15T05:53:51.702Z,2.40
2022-09-15T06:03:55.342Z,3.33
2022-09-15T06:06:23.245Z,3.80
2022-09-15T06:09:04.807Z,2.27
2022-09-15T06:11:35.252Z,2.07
2022-09-15T06:14:04.974Z,2.73
2022-09-15T06:16:34.769Z,2.27
2022-09-15T06:19:06.754Z,2.30
2022-09-15T06:21:34.565Z,2.03
2022-09-15T06:24:07.655Z,1.67
2022-09-15T06:26:35.453Z,2.40
2022-09-15T06:29:04.021Z,2.30
2022-09-15T06:31:33.808Z,1.40
2022-09-15T06:34:04.619Z,1.43
2022-09-15T06:36:32.558Z,1.83
2022-09-15T06:39:00.713Z,1.67
2022-09-15T06:41:52.621Z,1.60
2022-09-15T06:44:22.544Z,1.37
2022-09-15T06:46:53.843Z,1.70
2022-09-15T06:49:22.983Z,1.80
2022-09-15T06:51:50.743Z,2.47
2022-09-15T06:54:18.842Z,2.03
2022-09-15T06:57:57.168Z,2.10
2022-09-15T07:00:26.330Z,2.30
2022-09-15T07:02:54.047Z,2.30
2022-09-15T07:05:22.670Z,2.07
2022-09-15T07:07:50.422Z,2.63
2022-09-15T07:10:20.448Z,2.13
2022-09-15T07:12:51.808Z,2.50
2022-09-15T07:15:23.062Z,2.57
2022-09-15T07:17:56.642Z,2.80
2022-09-15T07:20:30.754Z,2.90
2022-09-15T07:23:11.686Z,2.67
2022-09-15T07:25:39.673Z,2.50
2022-09-15T07:28:07.787Z,2.97
2022-09-15T07:30:35.486Z,2.27
2022-09-15T07:33:07.461Z,2.83
2022-09-15T07:35:35.273Z,2.30
2022-09-15T07:38:03.714Z,1.97
2022-09-15T07:40:32.804Z,1.80
2022-09-15T07:43:01.639Z,1.60
2022-09-15T07:45:32.822Z,1.77
2022-09-15T07:48:00.571Z,2.00
2022-09-15T07:50:30.694Z,2.53
2022-09-15T07:53:26.954Z,1.90
2022-09-15T07:55:56.213Z,1.53
2022-09-15T07:58:27.369Z,2.40
2022-09-15T08:00:55.085Z,2.43
2022-09-15T08:03:24.745Z,2.30
2022-09-15T08:06:00.276Z,2.87
2022-09-15T08:08:30.988Z,2.47
2022-09-15T08:11:00.673Z,2.37
2022-09-15T08:13:30.974Z,3.10
2022-09-15T08:16:05.820Z,2.70
2022-09-15T08:18:37.017Z,3.00
2022-09-15T09:00:39.322Z,2.70
2022-09-15T09:07:02.207Z,2.90
2022-09-15T09:09:57.740Z,3.07
2022-09-15T09:13:16.953Z,2.80
2022-09-15T09:16:53.941Z,2.40
2022-09-15T09:19:36.833Z,3.10
2022-09-15T09:22:29.162Z,3.50
2022-09-15T09:27:50.901Z,3.10
2022-09-15T09:33:24.541Z,2.83
2022-09-15T09:35:59.760Z,3.60
2022-09-15T09:41:29.441Z,2.53
2022-09-15T09:44:09.912Z,3.30
2022-09-15T09:46:38.527Z,2.97
2022-09-15T09:49:29.713Z,3.13
2022-09-15T09:52:06.173Z,3.83
2022-09-15T09:54:37.993Z,2.57
2022-09-15T09:57:30.007Z,3.40
2022-09-15T09:59:57.653Z,3.53
2022-09-15T10:02:28.494Z,3.43
2022-09-15T10:05:20.010Z,4.53
2022-09-15T10:07:49.573Z,3.60
2022-09-15T10:10:33.049Z,2.43
2022-09-15T10:13:05.533Z,3.23
2022-09-15T10:15:43.733Z,3.60
2022-09-15T10:18:34.693Z,3.40
2022-09-15T10:21:08.726Z,3.00
2022-09-15T10:23:39.753Z,3.00
2022-09-15T10:26:23.174Z,2.80
2022-09-15T10:29:17.315Z,3.03
2022-09-15T10:31:46.253Z,3.03
2022-09-15T10:34:29.127Z,3.90
2022-09-15T10:37:37.438Z,3.00
2022-09-15T10:40:28.192Z,2.80
2022-09-15T10:43:22.957Z,3.40
2022-09-15T10:46:08.206Z,2.37
2022-09-15T10:48:44.118Z,2.60
2022-09-15T10:51:34.728Z,2.40
2022-09-15T10:54:09.666Z,2.87
2022-09-15T10:56:42.800Z,2.37
2022-09-15T10:59:33.820Z,1.93
2022-09-15T20:40:18.490Z,2.00
2022-09-15T20:42:50.869Z,2.53
2022-09-15T20:45:18.713Z,2.07
2022-09-15T20:47:46.677Z,2.33
2022-09-15T20:50:17.775Z,1.67
2022-09-15T20:52:47.117Z,1.97
2022-09-15T20:55:15.231Z,2.07
2022-09-15T20:57:43.218Z,2.07
2022-09-15T21:00:12.137Z,2.20
2022-09-15T21:02:41.461Z,1.87
2022-09-15T21:05:10.052Z,2.17
2022-09-15T21:07:45.200Z,2.03
2022-09-15T21:10:13.384Z,1.30
2022-09-15T21:12:41.237Z,3.63
2022-09-15T21:15:11.118Z,2.13
2022-09-15T21:17:40.357Z,2.30
2022-09-15T21:20:14.382Z,2.13
2022-09-15T21:22:42.589Z,1.90
2022-09-15T21:25:10.895Z,1.67
2022-09-15T21:27:40.049Z,2.40
2022-09-15T21:30:08.621Z,1.80
2022-09-15T21:32:36.474Z,2.50
2022-09-15T21:35:07.092Z,2.10
2022-09-15T21:37:35.395Z,2.40
2022-09-15T21:40:05.466Z,2.07
2022-09-15T21:42:33.916Z,2.83
2022-09-15T21:45:02.573Z,2.57
2022-09-15T21:47:35.381Z,2.03
2022-09-15T21:50:05.044Z,2.30
2022-09-15T21:52:36.304Z,2.13
2022-09-15T21:55:06.596Z,2.60
2022-09-15T21:57:50.097Z,2.47
2022-09-15T22:00:23.991Z,2.60
2022-09-15T22:02:52.837Z,2.13
2022-09-15T22:05:23.443Z,2.47
2022-09-15T22:10:42.065Z,3.00
2022-09-15T22:13:16.101Z,2.70
2022-09-15T22:15:45.500Z,2.43
2022-09-15T22:18:14.828Z,2.13
2022-09-15T22:20:44.736Z,1.97
2022-09-15T22:23:14.557Z,2.00
2022-09-15T22:25:42.659Z,2.90
2022-09-15T22:28:10.644Z,2.83
2022-09-15T22:30:40.587Z,2.40
2022-09-15T22:33:12.385Z,3.50
2022-09-15T22:35:41.339Z,2.90
2022-09-15T22:38:11.159Z,2.97
2022-09-15T22:40:39.237Z,2.20
2022-09-15T22:43:09.544Z,2.73
2022-09-15T22:45:38.949Z,2.03
2022-09-15T22:48:07.725Z,2.50
2022-09-15T22:50:38.036Z,2.17
2022-09-15T22:53:07.141Z,1.93
2022-09-15T22:55:35.088Z,2.03
2022-09-15T22:58:03.094Z,2.00
2022-09-15T23:00:40.029Z,2.20
2022-09-15T23:03:10.430Z,1.63
2022-09-15T23:05:40.632Z,1.63
2022-09-15T23:08:10.837Z,2.10
2022-09-15T23:10:40.029Z,2.30
2022-09-15T23:13:08.203Z,2.40
2022-09-15T23:15:45.381Z,2.80
2022-09-15T23:18:14.285Z,2.47
2022-09-15T23:20:44.421Z,2.60
2022-09-15T23:23:14.721Z,1.63
2022-09-15T23:25:45.872Z,1.87
2022-09-15T23:28:16.514Z,2.17
2022-09-15T23:30:45.777Z,3.23
2022-09-15T23:33:13.673Z,2.00
2022-09-15T23:35:41.808Z,1.90
2022-09-15T23:38:10.667Z,1.60
2022-09-15T23:40:38.311Z,1.43
2022-09-15T23:43:08.293Z,2.17
2022-09-15T23:45:44.722Z,2.47
2022-09-15T23:48:13.087Z,2.73
2022-09-15T23:50:40.922Z,1.90
2022-09-15T23:53:08.821Z,1.63
2022-09-15T23:55:38.864Z,2.00
2022-09-15T23:58:14.867Z,1.77
